Time;durP1;ratioP1;P1;durP2;ratioP2;P2;SDS_P1;SDS_P2;PMS_P1;PMS_P2;Temp;Humidity;BMP_temperature;BMP_pressure;BME280_temperature;BME280_humidity;BME280_pressure;Samples;Min_cycle;Max_cycle;Signal;HPM_P1;HPM_P2
2021/03/26 00:01:10;;;;;;;19.27;15.20;;;9.90;99.90;;;;;;5035272;28;20798;-72
2021/03/26 00:03:39;;;;;;;18.20;14.50;;;9.90;99.90;;;;;;5037318;28;20753;-72
2021/03/26 00:06:13;;;;;;;19.33;14.97;;;9.90;99.90;;;;;;5036930;28;20502;-72
2021/03/26 00:08:39;;;;;;;24.93;15.50;;;9.80;99.90;;;;;;5035510;28;20767;-73
2021/03/26 00:11:05;;;;;;;19.53;14.80;;;9.80;99.90;;;;;;5035074;28;20443;-72
2021/03/26 00:13:31;;;;;;;25.53;15.53;;;9.80;99.90;;;;;;5036579;28;20413;-73
2021/03/26 00:15:57;;;;;;;21.40;16.77;;;9.80;99.90;;;;;;5036971;28;20934;-73
2021/03/26 00:18:22;;;;;;;20.23;14.90;;;9.80;99.90;;;;;;5034771;28;20481;-73
2021/03/26 00:20:48;;;;;;;19.13;14.70;;;9.80;99.90;;;;;;5036353;28;20203;-72
2021/03/26 00:23:14;;;;;;;23.50;16.53;;;9.80;99.90;;;;;;5023340;28;20184;-73
2021/03/26 00:25:39;;;;;;;23.07;16.27;;;9.70;99.90;;;;;;5016545;28;20182;-73
2021/03/26 00:28:05;;;;;;;21.60;15.17;;;9.80;99.90;;;;;;5016466;28;20267;-73
2021/03/26 00:30:33;;;;;;;19.23;14.30;;;9.80;99.90;;;;;;5016544;28;20274;-73
2021/03/26 00:32:59;;;;;;;21.30;15.47;;;9.80;99.90;;;;;;5017485;28;20430;-73
2021/03/26 00:35:26;;;;;;;22.30;15.30;;;9.70;99.90;;;;;;5015334;28;20440;-72
2021/03/26 00:37:51;;;;;;;22.27;15.40;;;9.70;99.90;;;;;;5015714;28;20627;-71
2021/03/26 00:40:19;;;;;;;23.48;18.30;;;9.70;99.90;;;;;;5015121;28;20463;-72
2021/03/26 00:42:45;;;;;;;21.37;15.40;;;9.70;99.90;;;;;;5015182;28;20177;-71
2021/03/26 00:45:16;;;;;;;21.43;16.40;;;9.70;99.90;;;;;;5014874;28;20421;-72
2021/03/26 00:47:42;;;;;;;21.30;16.47;;;9.70;99.90;;;;;;5015463;28;20401;-72
2021/03/26 00:50:13;;;;;;;21.03;16.93;;;9.70;99.90;;;;;;5014688;28;20517;-72
2021/03/26 00:52:39;;;;;;;21.97;17.37;;;9.70;99.90;;;;;;5014657;28;20198;-72
2021/03/26 00:55:05;;;;;;;22.50;15.67;;;9.70;99.90;;;;;;5015677;28;20435;-71
2021/03/26 00:57:31;;;;;;;25.10;17.70;;;9.70;99.90;;;;;;5015139;28;20209;-72
2021/03/26 00:59:56;;;;;;;22.17;15.73;;;9.60;99.90;;;;;;5014955;28;20502;-72
2021/03/26 01:02:22;;;;;;;24.90;17.20;;;9.60;99.90;;;;;;5014929;28;20167;-71
2021/03/26 01:04:47;;;;;;;24.97;18.70;;;9.60;99.90;;;;;;5015404;28;20199;-71
2021/03/26 01:07:13;;;;;;;25.80;17.23;;;9.60;99.90;;;;;;5014896;28;20175;-72
2021/03/26 01:09:38;;;;;;;21.20;17.10;;;9.60;99.90;;;;;;5014377;28;20184;-72
2021/03/26 01:12:04;;;;;;;27.03;16.97;;;9.60;99.90;;;;;;5014458;28;20170;-72
2021/03/26 01:14:30;;;;;;;22.30;16.37;;;9.60;99.90;;;;;;5013710;28;20175;-71
2021/03/26 01:16:55;;;;;;;22.03;17.50;;;9.60;99.90;;;;;;5015788;28;20475;-72
2021/03/26 01:19:23;;;;;;;21.47;16.97;;;9.70;99.90;;;;;;5014531;28;20209;-71
2021/03/26 01:21:49;;;;;;;27.17;17.13;;;9.70;99.90;;;;;;5014387;28;20206;-72
2021/03/26 01:24:17;;;;;;;21.40;15.77;;;9.70;99.90;;;;;;5015516;28;20489;-71
2021/03/26 01:26:44;;;;;;;23.07;17.53;;;9.60;99.90;;;;;;5015333;28;20575;-72
2021/03/26 01:29:11;;;;;;;25.00;17.20;;;9.60;99.90;;;;;;5013828;28;20503;-72
2021/03/26 01:31:37;;;;;;;23.47;16.30;;;9.60;99.90;;;;;;5013938;28;20439;-72
2021/03/26 01:34:04;;;;;;;25.53;16.70;;;9.60;99.90;;;;;;5014035;28;20822;-72
2021/03/26 01:36:30;;;;;;;24.93;16.70;;;9.50;99.90;;;;;;5016449;28;20466;-72
2021/03/26 01:38:55;;;;;;;26.87;18.90;;;9.50;99.90;;;;;;5015493;28;20513;-72
2021/03/26 01:41:21;;;;;;;22.87;17.00;;;9.40;99.90;;;;;;4995006;28;567174;-72
2021/03/26 01:43:47;;;;;;;23.57;17.93;;;9.40;99.90;;;;;;5016542;28;20182;-72
2021/03/26 01:46:15;;;;;;;24.73;17.57;;;9.40;99.90;;;;;;5015821;28;20176;-72
2021/03/26 01:48:44;;;;;;;27.23;18.77;;;9.40;99.90;;;;;;5017728;28;20429;-72
2021/03/26 01:51:17;;;;;;;24.20;17.63;;;9.30;99.90;;;;;;5015811;28;20439;-72
2021/03/26 01:53:43;;;;;;;23.93;18.20;;;9.40;99.90;;;;;;5016210;28;20411;-72
2021/03/26 01:56:09;;;;;;;24.23;17.90;;;9.40;99.90;;;;;;5013350;28;20474;-72
2021/03/26 01:58:37;;;;;;;23.80;18.03;;;9.40;99.90;;;;;;5016303;28;20429;-72
2021/03/26 02:01:07;;;;;;;26.87;18.90;;;9.40;99.90;;;;;;5015283;28;20464;-72
2021/03/26 02:03:36;;;;;;;22.67;17.70;;;9.30;99.90;;;;;;5015107;28;20427;-73
2021/03/26 02:06:10;;;;;;;24.73;17.43;;;9.30;99.90;;;;;;5014600;28;20411;-72
2021/03/26 02:08:38;;;;;;;32.17;19.53;;;9.20;99.90;;;;;;5016195;28;20504;-72
2021/03/26 02:11:19;;;;;;;25.27;18.77;;;9.20;99.90;;;;;;5014646;28;20444;-72
2021/03/26 02:13:46;;;;;;;27.20;20.23;;;9.20;99.90;;;;;;5014910;28;20766;-72
2021/03/26 02:16:14;;;;;;;26.73;19.13;;;9.20;99.90;;;;;;5014571;28;20425;-72
2021/03/26 02:18:41;;;;;;;24.70;18.43;;;9.10;99.90;;;;;;5014409;28;20768;-73
2021/03/26 02:21:16;;;;;;;26.97;19.63;;;9.10;99.90;;;;;;5015483;28;20457;-72
2021/03/26 02:23:42;;;;;;;26.70;18.43;;;9.00;99.90;;;;;;5014789;28;20891;-72
2021/03/26 02:26:14;;;;;;;25.70;19.07;;;9.00;99.90;;;;;;5014649;28;20498;-72
2021/03/26 02:28:40;;;;;;;31.73;20.30;;;8.90;99.90;;;;;;5013990;28;20685;-72
2021/03/26 02:31:05;;;;;;;28.37;21.23;;;8.90;99.90;;;;;;5015286;28;20476;-72
2021/03/26 02:33:31;;;;;;;25.63;19.17;;;8.90;99.90;;;;;;5014625;28;20171;-72
2021/03/26 02:36:17;;;;;;;26.90;18.70;;;8.90;99.90;;;;;;5014946;28;20507;-72
2021/03/26 02:38:50;;;;;;;28.10;20.03;;;8.90;99.90;;;;;;5015129;28;20653;-72
2021/03/26 02:41:41;;;;;;;28.47;20.77;;;8.90;99.90;;;;;;5014145;28;20795;-72
2021/03/26 02:44:48;;;;;;;27.60;20.73;;;8.90;99.90;;;;;;5012992;28;20419;-72
2021/03/26 02:47:21;;;;;;;24.83;19.67;;;8.90;99.90;;;;;;4991994;28;20454;-72
2021/03/26 02:50:24;;;;;;;28.10;19.50;;;9.00;99.90;;;;;;4991183;28;20427;-72
2021/03/26 02:53:18;;;;;;;29.60;19.90;;;9.10;99.90;;;;;;4992221;28;20420;-72
2021/03/26 02:55:58;;;;;;;26.90;19.43;;;9.10;99.90;;;;;;4992313;28;20419;-72
2021/03/26 02:58:29;;;;;;;25.73;20.10;;;9.00;99.90;;;;;;4993177;28;20517;-72
2021/03/26 03:00:57;;;;;;;26.47;19.47;;;8.90;99.90;;;;;;4993126;28;20459;-72
2021/03/26 03:03:26;;;;;;;27.03;20.20;;;8.80;99.90;;;;;;4993018;28;20502;-72
2021/03/26 03:06:01;;;;;;;26.83;19.70;;;8.80;99.90;;;;;;4992642;28;20417;-72
2021/03/26 03:08:33;;;;;;;27.87;18.97;;;8.70;99.90;;;;;;5013096;28;20427;-72
2021/03/26 03:11:17;;;;;;;30.03;19.80;;;8.60;99.90;;;;;;4987772;28;20450;-72
2021/03/26 03:13:57;;;;;;;28.10;20.87;;;8.50;99.90;;;;;;5001062;28;20441;-72
2021/03/26 03:16:41;;;;;;;30.83;22.57;;;8.50;99.90;;;;;;5014971;28;22376;-72
2021/03/26 03:19:17;;;;;;;29.23;20.77;;;8.40;99.90;;;;;;5015160;28;20498;-73
2021/03/26 03:22:12;;;;;;;35.50;23.33;;;8.40;99.90;;;;;;5018918;28;20788;-72
2021/03/26 03:24:43;;;;;;;29.40;21.57;;;8.40;99.90;;;;;;5027331;28;20930;-73
2021/03/26 03:27:36;;;;;;;32.17;22.13;;;8.40;99.90;;;;;;5032082;28;20556;-72
2021/03/26 03:30:33;;;;;;;33.83;23.10;;;8.40;99.90;;;;;;5032164;28;20779;-72
2021/03/26 03:33:18;;;;;;;35.50;23.10;;;8.40;99.90;;;;;;5032052;28;20440;-72
2021/03/26 03:35:51;;;;;;;34.97;23.30;;;8.40;99.90;;;;;;5033870;28;20867;-72
2021/03/26 03:38:33;;;;;;;32.17;22.30;;;8.40;99.90;;;;;;5033390;28;20472;-72
2021/03/26 03:41:06;;;;;;;37.63;23.60;;;8.30;99.90;;;;;;5033175;28;20923;-73
2021/03/26 03:43:34;;;;;;;36.50;23.60;;;8.30;99.90;;;;;;5031674;28;20433;-72
2021/03/26 03:46:05;;;;;;;33.97;23.93;;;8.20;99.90;;;;;;5033590;28;20436;-73
2021/03/26 03:48:40;;;;;;;34.07;23.03;;;8.10;99.90;;;;;;5032809;28;20505;-73
2021/03/26 03:51:12;;;;;;;33.30;23.27;;;8.10;99.90;;;;;;5032921;28;20433;-74
2021/03/26 03:53:59;;;;;;;31.33;22.60;;;8.00;99.90;;;;;;5031436;28;20898;-73
2021/03/26 03:56:37;;;;;;;32.60;23.40;;;8.10;99.90;;;;;;5033130;28;20456;-73
2021/03/26 03:59:20;;;;;;;34.17;22.87;;;8.10;99.90;;;;;;5033251;28;20437;-73
2021/03/26 04:01:53;;;;;;;32.37;22.63;;;8.10;99.90;;;;;;5031284;28;20780;-73
2021/03/26 04:04:23;;;;;;;32.60;22.77;;;8.10;99.90;;;;;;5033145;28;20494;-73
2021/03/26 04:06:49;;;;;;;30.70;23.50;;;8.20;99.90;;;;;;5033630;28;20405;-73
2021/03/26 04:09:18;;;;;;;34.67;22.70;;;8.20;99.90;;;;;;5032769;28;20440;-73
2021/03/26 04:11:55;;;;;;;30.53;24.27;;;8.20;99.90;;;;;;5023106;28;20637;-72
2021/03/26 04:14:27;;;;;;;33.70;22.23;;;8.30;99.90;;;;;;5013424;28;20415;-73
2021/03/26 04:16:58;;;;;;;33.83;22.73;;;8.30;99.90;;;;;;5012859;28;20578;-73
2021/03/26 04:19:30;;;;;;;32.80;23.20;;;8.30;99.90;;;;;;5016377;28;20414;-73
2021/03/26 04:22:02;;;;;;;37.93;24.70;;;8.40;99.90;;;;;;5018023;28;20466;-72
2021/03/26 04:24:50;;;;;;;32.23;22.67;;;8.40;99.90;;;;;;5015759;28;20422;-73
2021/03/26 04:27:34;;;;;;;34.13;23.97;;;8.40;99.90;;;;;;5016425;28;20427;-72
2021/03/26 04:30:20;;;;;;;32.83;23.63;;;8.50;99.90;;;;;;5016446;28;20438;-73
2021/03/26 04:32:47;;;;;;;36.33;24.10;;;8.50;99.90;;;;;;5017294;28;20812;-72
2021/03/26 04:35:15;;;;;;;32.37;23.10;;;8.50;99.90;;;;;;5016567;28;20423;-73
2021/03/26 04:37:51;;;;;;;32.77;23.70;;;8.60;99.90;;;;;;5016144;28;20885;-73
2021/03/26 04:40:31;;;;;;;33.03;27.23;;;8.50;99.90;;;;;;5013290;28;20443;-72
2021/03/26 04:43:21;;;;;;;31.40;23.37;;;8.60;99.90;;;;;;5017160;28;20230;-72
2021/03/26 04:46:09;;;;;;;34.93;24.10;;;8.60;99.90;;;;;;5016832;28;20402;-73
2021/03/26 04:49:00;;;;;;;37.63;23.10;;;8.60;99.90;;;;;;5016163;28;20403;-72
2021/03/26 04:51:50;;;;;;;33.50;24.20;;;8.60;99.90;;;;;;5015788;28;20912;-72
2021/03/26 04:54:24;;;;;;;38.20;23.20;;;8.60;99.90;;;;;;5017202;28;20457;-72
2021/03/26 04:57:00;;;;;;;32.60;23.23;;;8.50;99.90;;;;;;5016322;28;20446;-72
2021/03/26 04:59:45;;;;;;;35.37;25.03;;;8.50;99.90;;;;;;5014982;28;20398;-72
2021/03/26 05:02:14;;;;;;;32.83;23.77;;;8.40;99.90;;;;;;5007378;28;20509;-72
2021/03/26 05:04:43;;;;;;;34.77;24.70;;;8.40;99.90;;;;;;5013624;28;20422;-72
2021/03/26 05:07:22;;;;;;;34.37;24.97;;;8.40;99.90;;;;;;5004796;28;20515;-73
2021/03/26 05:09:52;;;;;;;36.63;24.37;;;8.30;99.90;;;;;;5002697;28;20422;-72
2021/03/26 05:12:22;;;;;;;38.90;24.70;;;8.20;99.90;;;;;;5007415;28;20430;-72
2021/03/26 05:14:55;;;;;;;36.20;24.27;;;8.20;99.90;;;;;;5016260;28;20441;-72
2021/03/26 05:17:28;;;;;;;34.07;25.20;;;8.20;99.90;;;;;;5015534;28;20458;-72
2021/03/26 05:20:05;;;;;;;35.67;24.50;;;8.20;99.90;;;;;;5015779;28;20462;-72
2021/03/26 05:22:47;;;;;;;32.53;23.60;;;8.20;99.90;;;;;;5014118;28;20760;-72
2021/03/26 05:25:21;;;;;;;35.53;24.67;;;8.20;99.90;;;;;;5017405;28;20419;-73
2021/03/26 05:27:49;;;;;;;31.90;23.20;;;8.20;99.90;;;;;;5024237;28;20876;-72
2021/03/26 05:30:28;;;;;;;33.80;23.70;;;8.20;99.90;;;;;;5033321;28;20466;-73
2021/03/26 05:33:00;;;;;;;33.90;23.63;;;8.20;99.90;;;;;;5017523;28;20523;-72
2021/03/26 05:35:32;;;;;;;37.70;25.50;;;8.20;99.90;;;;;;4996189;28;20518;-73
2021/03/26 05:38:18;;;;;;;36.87;22.60;;;8.20;99.90;;;;;;4995240;28;20986;-73
2021/03/26 05:40:47;;;;;;;33.13;24.00;;;8.20;99.90;;;;;;4994267;28;20469;-72
2021/03/26 05:43:37;;;;;;;40.00;24.00;;;8.30;99.90;;;;;;4995700;28;20507;-73
2021/03/26 05:46:21;;;;;;;34.23;22.27;;;8.30;99.90;;;;;;4995651;28;20423;-72
2021/03/26 05:48:53;;;;;;;35.17;22.40;;;8.40;99.90;;;;;;5004431;28;20518;-72
2021/03/26 05:51:58;;;;;;;37.10;25.53;;;8.50;99.90;;;;;;5014813;28;20947;-73
2021/03/26 05:55:00;;;;;;;37.93;25.87;;;8.50;99.90;;;;;;4973313;28;20422;-73
2021/03/26 05:57:35;;;;;;;33.80;21.80;;;8.50;99.90;;;;;;5016744;28;20458;-72
2021/03/26 06:00:22;;;;;;;36.90;24.57;;;8.40;99.90;;;;;;5025042;28;20515;-72
2021/03/26 06:03:33;;;;;;;32.43;22.37;;;8.50;99.90;;;;;;5034638;28;20497;-72
2021/03/26 06:06:19;;;;;;;33.00;21.80;;;8.50;99.90;;;;;;4994512;28;20415;-72
2021/03/26 06:09:21;;;;;;;32.83;22.53;;;8.60;99.90;;;;;;4994723;28;20406;-72
2021/03/26 06:12:16;;;;;;;29.30;21.57;;;8.60;99.90;;;;;;4997814;28;20527;-72
2021/03/26 06:14:57;;;;;;;32.83;23.70;;;8.60;99.90;;;;;;5027307;28;20960;-73
2021/03/26 06:17:31;;;;;;;37.37;25.23;;;8.70;99.90;;;;;;5034470;28;20861;-73
2021/03/26 06:20:22;;;;;;;34.20;24.00;;;8.70;99.90;;;;;;5034172;28;20421;-73
2021/03/26 06:22:47;;;;;;;33.87;24.37;;;8.80;99.90;;;;;;5021435;28;20434;-73
2021/03/26 06:25:38;;;;;;;33.83;25.23;;;8.80;99.90;;;;;;5014836;28;20433;-73
2021/03/26 06:28:21;;;;;;;33.63;23.63;;;8.90;99.90;;;;;;5028341;28;20266;-73
2021/03/26 06:31:14;;;;;;;36.30;23.97;;;8.90;99.90;;;;;;5046483;28;20422;-72
2021/03/26 06:34:06;;;;;;;35.00;24.97;;;9.00;99.90;;;;;;5056620;28;20447;-72
2021/03/26 06:36:42;;;;;;;33.47;23.93;;;9.00;99.90;;;;;;5049529;28;20485;-72
2021/03/26 06:39:32;;;;;;;31.77;22.60;;;9.00;99.90;;;;;;5038229;28;20840;-72
2021/03/26 06:42:29;;;;;;;36.10;24.60;;;9.10;99.90;;;;;;5048812;28;20442;-72
2021/03/26 06:45:10;;;;;;;34.60;23.90;;;9.10;99.90;;;;;;5048091;28;20426;-72
2021/03/26 06:48:10;;;;;;;32.93;23.03;;;9.10;99.90;;;;;;5042008;28;20406;-72
2021/03/26 06:50:55;;;;;;;35.13;23.03;;;9.20;99.90;;;;;;5043373;28;20414;-72
2021/03/26 06:53:39;;;;;;;34.30;23.40;;;9.20;99.90;;;;;;5045205;28;20402;-73
2021/03/26 06:56:43;;;;;;;37.63;25.80;;;9.20;99.90;;;;;;5035274;28;20443;-72
2021/03/26 06:59:33;;;;;;;38.00;24.40;;;9.20;99.90;;;;;;5034695;28;20947;-73
2021/03/26 07:02:06;;;;;;;36.50;24.57;;;9.20;99.90;;;;;;5034948;28;20405;-73
2021/03/26 07:04:42;;;;;;;38.70;24.90;;;9.30;99.90;;;;;;5034250;28;20397;-73
2021/03/26 07:07:30;;;;;;;34.40;24.80;;;9.30;99.90;;;;;;5034648;28;20836;-73
2021/03/26 07:10:24;;;;;;;35.23;25.37;;;9.30;99.90;;;;;;5032527;28;20854;-73
2021/03/26 07:13:12;;;;;;;36.87;26.10;;;9.40;99.90;;;;;;5033574;28;20896;-73
2021/03/26 07:16:02;;;;;;;36.70;25.83;;;9.40;99.90;;;;;;5034316;28;20751;-73
2021/03/26 07:18:43;;;;;;;38.40;25.27;;;9.50;99.90;;;;;;5034067;28;20453;-73
2021/03/26 07:21:18;;;;;;;36.07;25.33;;;9.50;99.90;;;;;;5033820;28;20860;-72
2021/03/26 07:23:47;;;;;;;34.70;24.70;;;9.50;99.90;;;;;;5017104;28;20741;-73
2021/03/26 07:26:41;;;;;;;37.03;26.10;;;9.60;99.90;;;;;;5014638;28;20405;-73
2021/03/26 07:29:30;;;;;;;37.60;26.10;;;9.60;99.90;;;;;;5014021;28;20485;-73
2021/03/26 07:32:28;;;;;;;36.40;25.50;;;9.70;99.90;;;;;;5014711;28;20407;-73
2021/03/26 07:35:20;;;;;;;37.83;25.57;;;9.70;99.90;;;;;;5014711;28;20400;-73
2021/03/26 07:38:15;;;;;;;34.13;25.60;;;9.80;99.90;;;;;;5014000;28;20478;-73
2021/03/26 07:40:52;;;;;;;35.10;25.03;;;9.80;99.90;;;;;;5012733;28;20462;-73
2021/03/26 07:43:55;;;;;;;32.83;24.30;;;9.80;99.90;;;;;;5013600;28;20428;-72
2021/03/26 07:46:38;;;;;;;36.83;26.30;;;9.90;99.90;;;;;;5013464;28;20420;-72
2021/03/26 07:49:27;;;;;;;35.80;26.00;;;10.00;99.90;;;;;;5012108;28;20417;-72
2021/03/26 07:52:18;;;;;;;34.23;24.63;;;10.00;99.90;;;;;;5013627;28;20446;-73
2021/03/26 07:55:04;;;;;;;37.20;25.23;;;10.10;99.90;;;;;;5015921;28;20785;-71
2021/03/26 07:57:50;;;;;;;34.63;26.88;;;10.10;99.90;;;;;;5016387;28;20457;-73
2021/03/26 08:00:25;;;;;;;35.10;24.60;;;10.20;99.90;;;;;;5015965;28;20744;-71
2021/03/26 08:03:04;;;;;;;35.30;25.20;;;10.30;99.90;;;;;;5017120;28;20435;-71
2021/03/26 08:06:00;;;;;;;32.42;25.38;;;10.30;99.90;;;;;;5016929;28;20422;-72
2021/03/26 08:08:47;;;;;;;32.90;24.87;;;10.40;99.90;;;;;;5017307;28;20707;-73
2021/03/26 08:11:44;;;;;;;34.10;23.43;;;10.50;99.90;;;;;;5017544;28;20439;-72
2021/03/26 08:14:32;;;;;;;34.33;23.77;;;10.60;99.90;;;;;;5016938;28;20434;-73
2021/03/26 08:17:31;;;;;;;30.80;23.37;;;10.70;99.90;;;;;;5018491;28;20484;-73
2021/03/26 08:19:57;;;;;;;30.67;22.00;;;10.70;99.90;;;;;;5036251;28;20431;-73
2021/03/26 08:23:00;;;;;;;28.23;21.07;;;10.70;99.90;;;;;;5031754;28;20832;-72
2021/03/26 08:25:59;;;;;;;29.53;21.00;;;10.80;99.90;;;;;;5017341;28;20239;-71
2021/03/26 08:29:02;;;;;;;29.33;22.10;;;10.90;99.90;;;;;;5015784;28;20994;-72
2021/03/26 08:31:33;;;;;;;31.20;22.53;;;11.00;99.90;;;;;;5016824;28;20425;-72
2021/03/26 08:34:14;;;;;;;29.10;22.53;;;11.10;99.90;;;;;;5016480;28;20509;-72
2021/03/26 08:36:50;;;;;;;26.07;19.90;;;11.10;99.90;;;;;;5017908;28;20446;-71
2021/03/26 08:39:25;;;;;;;25.20;19.40;;;11.20;99.90;;;;;;5027042;28;20410;-71
2021/03/26 08:41:56;;;;;;;27.70;20.07;;;11.20;99.90;;;;;;5016917;28;20438;-74
2021/03/26 08:44:24;;;;;;;28.87;20.47;;;11.30;99.90;;;;;;5016586;28;20945;-73
2021/03/26 08:46:53;;;;;;;30.00;21.37;;;11.50;99.90;;;;;;5018062;28;20454;-74
2021/03/26 08:49:33;;;;;;;27.13;20.20;;;11.50;99.90;;;;;;5019237;28;20429;-74
2021/03/26 08:51:59;;;;;;;26.63;20.17;;;11.60;99.90;;;;;;5016550;28;20429;-74
2021/03/26 08:55:08;;;;;;;26.30;19.83;;;11.60;99.90;;;;;;5016753;28;20411;-73
2021/03/26 08:57:49;;;;;;;27.77;20.63;;;11.70;99.90;;;;;;5016246;28;20199;-73
2021/03/26 09:00:37;;;;;;;27.73;20.10;;;11.80;99.90;;;;;;5017530;28;20469;-73
2021/03/26 09:03:24;;;;;;;29.30;20.20;;;11.80;99.90;;;;;;5015689;28;20836;-72
2021/03/26 09:06:12;;;;;;;23.10;17.20;;;11.80;99.90;;;;;;5016351;28;20379;-72
2021/03/26 09:08:43;;;;;;;22.57;17.87;;;12.00;99.90;;;;;;5027645;28;20421;-71
2021/03/26 09:11:25;;;;;;;24.10;17.10;;;12.10;99.90;;;;;;5016122;28;20449;-74
2021/03/26 09:14:25;;;;;;;26.30;17.77;;;12.20;99.90;;;;;;5015985;28;20473;-73
2021/03/26 09:17:21;;;;;;;23.37;17.93;;;12.30;99.90;;;;;;5016816;28;20496;-73
2021/03/26 09:20:00;;;;;;;23.90;18.73;;;12.30;99.90;;;;;;5015264;28;20922;-74
2021/03/26 09:22:48;;;;;;;23.80;18.47;;;12.40;99.90;;;;;;5016761;28;20426;-72
2021/03/26 09:25:31;;;;;;;21.47;17.03;;;12.50;99.90;;;;;;5015960;28;20763;-72
2021/03/26 09:28:05;;;;;;;21.83;17.77;;;12.50;99.90;;;;;;5015145;28;20446;-72
2021/03/26 09:30:40;;;;;;;22.70;17.63;;;12.80;99.90;;;;;;5015831;28;20425;-73
2021/03/26 09:33:06;;;;;;;27.17;17.83;;;12.90;99.90;;;;;;5033404;28;20512;-73
2021/03/26 09:35:38;;;;;;;22.43;17.30;;;12.90;99.90;;;;;;5030425;28;20430;-73
2021/03/26 09:38:21;;;;;;;29.73;19.30;;;12.90;99.90;;;;;;5024379;28;20958;-72
2021/03/26 09:41:00;;;;;;;21.97;17.40;;;12.90;99.90;;;;;;5015507;28;20473;-73
2021/03/26 09:43:45;;;;;;;23.03;15.97;;;12.90;99.90;;;;;;5015873;28;20865;-72
2021/03/26 09:46:37;;;;;;;19.90;16.10;;;12.90;99.70;;;;;;5003935;28;20441;-73
2021/03/26 09:49:16;;;;;;;23.80;17.03;;;12.90;99.60;;;;;;5015530;28;20816;-72
2021/03/26 09:51:48;;;;;;;20.90;15.27;;;12.90;99.10;;;;;;5015339;28;20430;-73
2021/03/26 09:54:35;;;;;;;19.70;15.50;;;12.90;98.90;;;;;;5014120;28;20410;-73
2021/03/26 09:57:35;;;;;;;22.63;15.20;;;12.90;98.90;;;;;;5017431;28;20485;-73
2021/03/26 10:00:23;;;;;;;22.27;14.40;;;13.00;98.80;;;;;;5032723;28;20437;-74
2021/03/26 10:03:15;;;;;;;20.33;13.33;;;13.10;98.50;;;;;;5034630;28;20397;-73
2021/03/26 10:06:03;;;;;;;16.30;13.00;;;13.20;98.00;;;;;;5034829;28;20416;-73
2021/03/26 10:11:32;;;;;;;16.40;13.07;;;13.30;97.70;;;;;;5014849;28;20525;-73
2021/03/26 10:14:01;;;;;;;16.30;12.10;;;13.60;97.50;;;;;;5014085;28;20915;-72
2021/03/26 10:17:06;;;;;;;15.97;12.80;;;13.80;96.80;;;;;;5014139;28;20811;-73
2021/03/26 10:19:49;;;;;;;18.07;13.20;;;14.10;96.40;;;;;;4970867;28;20949;-73
2021/03/26 10:22:22;;;;;;;20.73;15.10;;;14.20;95.70;;;;;;4973594;28;20479;-72
2021/03/26 10:25:12;;;;;;;16.83;13.73;;;14.20;95.40;;;;;;4973300;28;21020;-73
2021/03/26 10:27:43;;;;;;;18.53;12.63;;;14.20;95.60;;;;;;4967308;28;20427;-72
2021/03/26 10:30:36;;;;;;;14.80;11.80;;;14.10;95.30;;;;;;4954816;28;20844;-71
2021/03/26 10:33:08;;;;;;;12.43;11.10;;;14.20;95.20;;;;;;4954016;28;20421;-72
2021/03/26 10:35:36;;;;;;;12.60;11.17;;;14.40;95.40;;;;;;4955886;28;20424;-72
2021/03/26 10:38:13;;;;;;;14.20;11.53;;;14.50;94.40;;;;;;4959571;28;20552;-72
2021/03/26 10:40:47;;;;;;;17.33;12.40;;;14.60;94.00;;;;;;4957522;28;21040;-73
2021/03/26 10:43:30;;;;;;;15.10;11.63;;;14.80;94.20;;;;;;4954028;29;20456;-73
2021/03/26 10:46:02;;;;;;;15.13;11.33;;;15.00;93.80;;;;;;4957743;28;20491;-73
2021/03/26 10:48:44;;;;;;;12.50;11.20;;;15.10;93.60;;;;;;4972598;28;20428;-73
2021/03/26 10:51:28;;;;;;;12.60;10.40;;;15.20;93.40;;;;;;4953592;28;20444;-73
2021/03/26 10:54:03;;;;;;;17.30;11.33;;;15.20;92.90;;;;;;4956946;28;20470;-73
2021/03/26 10:56:51;;;;;;;14.15;11.60;;;15.10;93.10;;;;;;5007917;28;20405;-73
2021/03/26 10:59:31;;;;;;;14.10;10.03;;;15.20;93.20;;;;;;5031957;28;20182;-73
2021/03/26 11:02:24;;;;;;;12.50;10.90;;;15.30;92.80;;;;;;5014879;28;20773;-71
2021/03/26 11:05:23;;;;;;;14.13;11.23;;;15.30;92.80;;;;;;4994690;28;20765;-72
2021/03/26 11:08:12;;;;;;;16.63;11.53;;;15.20;93.00;;;;;;5002237;28;20957;-72
2021/03/26 11:11:00;;;;;;;11.50;10.30;;;15.20;92.70;;;;;;5025114;28;20488;-72
2021/03/26 11:14:06;;;;;;;13.50;10.70;;;15.30;92.90;;;;;;5014603;28;20429;-72
2021/03/26 11:16:41;;;;;;;16.03;12.27;;;15.40;92.80;;;;;;5022414;28;20504;-72
2021/03/26 11:19:28;;;;;;;17.53;12.07;;;15.40;92.60;;;;;;5009463;28;20438;-72
2021/03/26 11:22:01;;;;;;;17.30;14.17;;;15.30;92.70;;;;;;5015480;28;20442;-73
2021/03/26 11:24:41;;;;;;;16.80;12.80;;;15.40;92.80;;;;;;5014462;28;20394;-72
2021/03/26 11:27:16;;;;;;;18.30;12.90;;;15.20;93.00;;;;;;5014251;28;20414;-72
2021/03/26 11:29:47;;;;;;;16.70;12.20;;;15.40;93.40;;;;;;5016374;28;20851;-72
2021/03/26 11:32:24;;;;;;;15.87;12.73;;;15.50;92.80;;;;;;5019239;28;20509;-72
2021/03/26 11:35:10;;;;;;;16.00;12.57;;;15.70;92.90;;;;;;5018171;28;20911;-72
2021/03/26 11:37:48;;;;;;;15.17;11.83;;;15.90;92.90;;;;;;5025990;28;20461;-72
2021/03/26 11:40:38;;;;;;;13.93;10.93;;;15.90;92.60;;;;;;5028643;28;20452;-72
2021/03/26 11:43:05;;;;;;;9.77;8.77;;;15.90;92.10;;;;;;5016589;28;20419;-72
2021/03/26 11:45:37;;;;;;;11.17;8.60;;;15.80;91.70;;;;;;5018213;28;20450;-73
2021/03/26 11:48:14;;;;;;;11.57;8.40;;;15.70;91.80;;;;;;5037410;28;20432;-73
2021/03/26 11:50:51;;;;;;;10.23;9.00;;;15.70;91.60;;;;;;5035380;28;20529;-73
2021/03/26 11:53:26;;;;;;;10.43;7.43;;;15.50;91.00;;;;;;5036120;28;20421;-73
2021/03/26 11:56:18;;;;;;;14.10;7.30;;;15.60;90.90;;;;;;5037814;28;20409;-73
2021/03/26 11:59:08;;;;;;;9.23;7.27;;;15.50;90.60;;;;;;5015821;28;20502;-72
2021/03/26 12:02:00;;;;;;;8.90;7.63;;;15.70;90.50;;;;;;5037315;28;20966;-73
2021/03/26 12:04:39;;;;;;;8.43;6.77;;;15.80;90.40;;;;;;5021257;28;20900;-72
2021/03/26 12:07:38;;;;;;;7.50;6.53;;;15.90;90.00;;;;;;5017174;28;20414;-73
2021/03/26 12:10:29;;;;;;;7.23;5.90;;;15.90;89.50;;;;;;5019208;28;20437;-72
2021/03/26 12:13:37;;;;;;;8.17;6.67;;;16.00;89.00;;;;;;5024151;28;20480;-71
2021/03/26 12:16:02;;;;;;;7.20;6.50;;;15.80;89.60;;;;;;5013239;28;20989;-72
2021/03/26 12:18:42;;;;;;;9.77;6.90;;;15.70;90.00;;;;;;5019106;28;20496;-72
2021/03/26 12:21:24;;;;;;;8.73;7.00;;;15.60;90.20;;;;;;5016719;28;20629;-73
2021/03/26 12:24:00;;;;;;;8.30;6.70;;;15.50;90.00;;;;;;5017509;28;20441;-71
2021/03/26 12:26:27;;;;;;;11.10;6.60;;;15.50;90.30;;;;;;5034646;28;20409;-72
2021/03/26 12:28:54;;;;;;;8.00;6.40;;;15.60;90.30;;;;;;5036408;28;20449;-73
2021/03/26 12:31:35;;;;;;;10.73;6.77;;;15.70;90.30;;;;;;5036685;28;20424;-71
2021/03/26 12:34:22;;;;;;;7.37;6.13;;;15.70;90.10;;;;;;5022510;28;20465;-73
2021/03/26 12:37:06;;;;;;;7.53;6.30;;;15.70;90.10;;;;;;5017221;28;20470;-73
2021/03/26 12:39:36;;;;;;;7.47;6.40;;;15.80;89.90;;;;;;5014162;28;20465;-71
2021/03/26 12:42:13;;;;;;;6.90;6.20;;;15.80;89.50;;;;;;5017192;28;20430;-74
2021/03/26 12:44:42;;;;;;;7.33;6.27;;;15.80;88.70;;;;;;5015570;28;20411;-72
2021/03/26 12:47:28;;;;;;;7.20;6.40;;;15.90;88.90;;;;;;5029236;28;20426;-73
2021/03/26 12:50:09;;;;;;;7.27;5.87;;;15.80;87.80;;;;;;5035356;28;20461;-72
2021/03/26 12:53:04;;;;;;;8.50;7.00;;;15.90;88.30;;;;;;5035392;28;20437;-72
2021/03/26 12:55:29;;;;;;;9.17;7.27;;;15.80;88.00;;;;;;5036011;28;20398;-72
2021/03/26 12:58:42;;;;;;;7.83;7.03;;;15.90;88.40;;;;;;5033546;28;20460;-72
2021/03/26 13:01:17;;;;;;;7.13;6.43;;;15.90;88.20;;;;;;5035801;28;20179;-72
2021/03/26 13:03:53;;;;;;;9.13;6.93;;;15.70;88.60;;;;;;5020749;28;20480;-73
2021/03/26 13:06:44;;;;;;;7.30;6.03;;;15.70;89.10;;;;;;5015813;28;20398;-73
2021/03/26 13:09:50;;;;;;;6.20;5.60;;;15.80;88.50;;;;;;5009947;28;20431;-72
2021/03/26 13:12:29;;;;;;;6.97;6.27;;;15.90;88.50;;;;;;5019836;28;20422;-73
2021/03/26 13:15:12;;;;;;;7.13;5.80;;;15.80;87.90;;;;;;5016295;28;20686;-72
2021/03/26 13:17:38;;;;;;;7.33;5.60;;;15.70;87.80;;;;;;5021106;28;20984;-73
2021/03/26 13:20:11;;;;;;;11.30;6.03;;;15.60;88.20;;;;;;5035265;28;20429;-72
2021/03/26 13:22:46;;;;;;;6.87;5.47;;;15.70;88.60;;;;;;5035234;28;20163;-73
2021/03/26 13:25:30;;;;;;;5.90;4.97;;;15.80;88.60;;;;;;5036330;28;20429;-73
2021/03/26 13:27:56;;;;;;;10.33;6.27;;;15.80;88.40;;;;;;5033258;28;20513;-72
2021/03/26 13:30:24;;;;;;;8.13;5.80;;;15.90;88.50;;;;;;5015141;28;20430;-72
2021/03/26 13:32:58;;;;;;;5.60;5.00;;;16.00;88.60;;;;;;5014400;28;20180;-72
2021/03/26 13:35:35;;;;;;;5.83;5.07;;;16.10;88.50;;;;;;5018969;28;20436;-73
2021/03/26 13:38:19;;;;;;;10.73;5.27;;;16.30;88.30;;;;;;5026325;28;20815;-73